sensor_id;sensor_type;location;lat;lon;timestamp;noise_LAeq;noise_LA_min;noise_LA_max;noise_LA01;noise_LA95
58303;Laerm;44109;52.398;7.024;2023-01-10T00:01:28;44.54;32.53;57.19;;
58303;Laerm;44109;52.398;7.024;2023-01-10T00:03:55;44.66;32.03;57.21;;
58303;Laerm;44109;52.398;7.024;2023-01-10T00:06:24;44.44;32.02;57.28;;
58303;Laerm;44109;52.398;7.024;2023-01-10T00:08:52;44.57;31.97;56.87;;
58303;Laerm;44109;52.398;7.024;2023-01-10T00:11:20;44.57;32.70;56.97;;
58303;Laerm;44109;52.398;7.024;2023-01-10T00:14:05;44.49;32.76;56.43;;
58303;Laerm;44109;52.398;7.024;2023-01-10T00:16:33;44.80;32.41;57.13;;
58303;Laerm;44109;52.398;7.024;2023-01-10T00:19:02;44.95;32.07;57.37;;
58303;Laerm;44109;52.398;7.024;2023-01-10T00:21:31;45.13;32.28;57.67;;
58303;Laerm;44109;52.398;7.024;2023-01-10T00:23:59;45.09;31.76;57.73;;
58303;Laerm;44109;52.398;7.024;2023-01-10T00:26:38;44.63;32.10;57.75;;
58303;Laerm;44109;52.398;7.024;2023-01-10T00:29:07;44.82;32.54;57.15;;
58303;Laerm;44109;52.398;7.024;2023-01-10T00:31:34;44.50;31.77;57.25;;
58303;Laerm;44109;52.398;7.024;2023-01-10T00:34:02;44.67;31.28;57.17;;
58303;Laerm;44109;52.398;7.024;2023-01-10T00:36:31;44.94;31.80;56.85;;
58303;Laerm;44109;52.398;7.024;2023-01-10T00:38:59;44.25;32.24;57.16;;
58303;Laerm;44109;52.398;7.024;2023-01-10T00:41:27;44.22;31.82;57.21;;
58303;Laerm;44109;52.398;7.024;2023-01-10T00:44:12;43.71;31.40;57.49;;
58303;Laerm;44109;52.398;7.024;2023-01-10T00:46:40;44.58;32.29;57.78;;
58303;Laerm;44109;52.398;7.024;2023-01-10T00:49:07;44.40;31.35;57.00;;
58303;Laerm;44109;52.398;7.024;2023-01-10T00:51:38;44.54;31.89;56.42;;
58303;Laerm;44109;52.398;7.024;2023-01-10T00:54:07;44.18;31.99;57.61;;
58303;Laerm;44109;52.398;7.024;2023-01-10T00:56:35;44.60;31.68;57.08;;
58303;Laerm;44109;52.398;7.024;2023-01-10T00:59:03;44.29;32.26;57.28;;
58303;Laerm;44109;52.398;7.024;2023-01-10T01:01:31;44.30;31.34;57.26;;
58303;Laerm;44109;52.398;7.024;2023-01-10T01:03:59;44.36;32.26;57.23;;
58303;Laerm;44109;52.398;7.024;2023-01-10T01:06:27;44.33;32.10;57.30;;
58303;Laerm;44109;52.398;7.024;2023-01-10T01:08:56;44.34;32.49;57.19;;
58303;Laerm;44109;52.398;7.024;2023-01-10T01:11:24;45.38;32.46;57.67;;
58303;Laerm;44109;52.398;7.024;2023-01-10T01:13:51;44.42;32.18;59.04;;
58303;Laerm;44109;52.398;7.024;2023-01-10T01:16:20;44.89;32.27;61.94;;
58303;Laerm;44109;52.398;7.024;2023-01-10T01:18:47;44.48;32.31;57.29;;
58303;Laerm;44109;52.398;7.024;2023-01-10T01:21:15;44.56;32.66;57.03;;
58303;Laerm;44109;52.398;7.024;2023-01-10T01:23:43;44.63;32.24;57.31;;
58303;Laerm;44109;52.398;7.024;2023-01-10T01:26:12;44.58;32.42;57.32;;
58303;Laerm;44109;52.398;7.024;2023-01-10T01:28:39;44.80;32.12;56.89;;
58303;Laerm;44109;52.398;7.024;2023-01-10T01:31:08;44.93;31.99;57.20;;
58303;Laerm;44109;52.398;7.024;2023-01-10T01:33:36;44.74;32.44;57.17;;
58303;Laerm;44109;52.398;7.024;2023-01-10T01:36:07;44.46;32.09;57.36;;
58303;Laerm;44109;52.398;7.024;2023-01-10T01:38:36;44.88;32.69;57.26;;
58303;Laerm;44109;52.398;7.024;2023-01-10T01:41:04;44.82;32.58;57.17;;
58303;Laerm;44109;52.398;7.024;2023-01-10T01:44:09;43.74;32.10;57.42;;
58303;Laerm;44109;52.398;7.024;2023-01-10T01:46:39;44.08;32.22;57.28;;
58303;Laerm;44109;52.398;7.024;2023-01-10T01:49:15;44.41;31.78;57.25;;
58303;Laerm;44109;52.398;7.024;2023-01-10T01:51:46;44.41;31.47;57.29;;
58303;Laerm;44109;52.398;7.024;2023-01-10T01:54:17;44.81;32.83;57.31;;
58303;Laerm;44109;52.398;7.024;2023-01-10T01:56:51;44.39;32.29;57.24;;
58303;Laerm;44109;52.398;7.024;2023-01-10T01:59:27;44.67;32.18;57.37;;
58303;Laerm;44109;52.398;7.024;2023-01-10T02:02:02;44.55;32.07;57.27;;
58303;Laerm;44109;52.398;7.024;2023-01-10T02:04:34;34.99;32.59;44.40;;
58303;Laerm;44109;52.398;7.024;2023-01-10T02:07:04;44.45;32.11;56.79;;
58303;Laerm;44109;52.398;7.024;2023-01-10T02:09:39;44.33;32.62;57.19;;
58303;Laerm;44109;52.398;7.024;2023-01-10T02:12:09;44.95;32.93;57.29;;
58303;Laerm;44109;52.398;7.024;2023-01-10T02:14:39;44.65;32.07;57.13;;
58303;Laerm;44109;52.398;7.024;2023-01-10T02:17:10;45.31;32.45;68.54;;
58303;Laerm;44109;52.398;7.024;2023-01-10T02:19:49;44.82;33.17;56.78;;
58303;Laerm;44109;52.398;7.024;2023-01-10T02:26:27;43.70;32.29;57.80;;
58303;Laerm;44109;52.398;7.024;2023-01-10T02:32:37;44.00;32.23;57.91;;
58303;Laerm;44109;52.398;7.024;2023-01-10T02:35:20;44.17;31.97;58.00;;
58303;Laerm;44109;52.398;7.024;2023-01-10T02:38:03;43.77;32.95;57.12;;
58303;Laerm;44109;52.398;7.024;2023-01-10T02:40:51;43.98;33.18;57.30;;
58303;Laerm;44109;52.398;7.024;2023-01-10T02:43:28;44.02;32.82;57.69;;
58303;Laerm;44109;52.398;7.024;2023-01-10T02:46:03;44.01;32.50;57.30;;
58303;Laerm;44109;52.398;7.024;2023-01-10T02:48:33;44.54;32.19;57.23;;
58303;Laerm;44109;52.398;7.024;2023-01-10T02:51:03;44.19;32.55;57.11;;
58303;Laerm;44109;52.398;7.024;2023-01-10T02:53:39;43.96;32.08;57.33;;
58303;Laerm;44109;52.398;7.024;2023-01-10T02:56:43;43.82;32.84;57.93;;
58303;Laerm;44109;52.398;7.024;2023-01-10T03:02:35;43.74;33.03;58.14;;
58303;Laerm;44109;52.398;7.024;2023-01-10T03:05:22;44.32;32.94;57.44;;
58303;Laerm;44109;52.398;7.024;2023-01-10T03:08:06;44.53;32.86;57.80;;
58303;Laerm;44109;52.398;7.024;2023-01-10T03:10:44;44.13;32.67;57.26;;
58303;Laerm;44109;52.398;7.024;2023-01-10T03:13:20;44.47;32.53;57.48;;
58303;Laerm;44109;52.398;7.024;2023-01-10T03:15:53;44.45;33.67;56.82;;
58303;Laerm;44109;52.398;7.024;2023-01-10T03:18:41;44.30;32.71;57.28;;
58303;Laerm;44109;52.398;7.024;2023-01-10T03:21:13;43.95;33.04;57.30;;
58303;Laerm;44109;52.398;7.024;2023-01-10T03:23:46;44.66;33.03;56.83;;
58303;Laerm;44109;52.398;7.024;2023-01-10T03:29:08;46.02;34.02;57.88;;
58303;Laerm;44109;52.398;7.024;2023-01-10T03:31:44;46.22;33.64;56.97;;
58303;Laerm;44109;52.398;7.024;2023-01-10T03:34:15;44.54;32.97;57.23;;
58303;Laerm;44109;52.398;7.024;2023-01-10T03:36:52;44.43;33.74;57.13;;
58303;Laerm;44109;52.398;7.024;2023-01-10T03:39:32;45.10;33.42;60.23;;
58303;Laerm;44109;52.398;7.024;2023-01-10T03:42:10;46.53;34.60;58.36;;
58303;Laerm;44109;52.398;7.024;2023-01-10T03:44:52;44.81;34.24;61.01;;
58303;Laerm;44109;52.398;7.024;2023-01-10T03:47:29;47.37;33.13;78.43;;
58303;Laerm;44109;52.398;7.024;2023-01-10T03:50:05;48.27;34.02;71.81;;
58303;Laerm;44109;52.398;7.024;2023-01-10T03:52:35;51.61;33.99;77.43;;
58303;Laerm;44109;52.398;7.024;2023-01-10T03:55:06;45.92;33.31;62.11;;
58303;Laerm;44109;52.398;7.024;2023-01-10T03:57:36;45.35;32.92;58.01;;
58303;Laerm;44109;52.398;7.024;2023-01-10T04:00:05;44.78;32.29;57.21;;
58303;Laerm;44109;52.398;7.024;2023-01-10T04:02:33;46.16;34.09;67.95;;
58303;Laerm;44109;52.398;7.024;2023-01-10T04:05:01;46.18;33.53;61.89;;
58303;Laerm;44109;52.398;7.024;2023-01-10T04:07:28;48.05;34.02;70.98;;
58303;Laerm;44109;52.398;7.024;2023-01-10T04:09:57;44.99;33.31;57.28;;
58303;Laerm;44109;52.398;7.024;2023-01-10T04:12:25;44.93;33.11;57.36;;
58303;Laerm;44109;52.398;7.024;2023-01-10T04:14:53;45.10;33.71;56.99;;
58303;Laerm;44109;52.398;7.024;2023-01-10T04:17:21;45.14;32.79;57.38;;
58303;Laerm;44109;52.398;7.024;2023-01-10T04:19:48;46.07;33.89;57.45;;
58303;Laerm;44109;52.398;7.024;2023-01-10T04:22:16;45.11;33.86;57.16;;
58303;Laerm;44109;52.398;7.024;2023-01-10T04:24:44;45.55;35.30;57.05;;
58303;Laerm;44109;52.398;7.024;2023-01-10T04:27:15;44.99;33.09;57.16;;
58303;Laerm;44109;52.398;7.024;2023-01-10T04:29:42;45.52;32.94;59.15;;
58303;Laerm;44109;52.398;7.024;2023-01-10T04:32:10;45.14;33.10;57.05;;
58303;Laerm;44109;52.398;7.024;2023-01-10T04:34:38;45.33;33.10;57.47;;
58303;Laerm;44109;52.398;7.024;2023-01-10T04:37:05;45.70;34.70;57.29;;
58303;Laerm;44109;52.398;7.024;2023-01-10T04:39:33;45.51;34.01;57.02;;
58303;Laerm;44109;52.398;7.024;2023-01-10T04:42:00;45.36;33.70;57.47;;
58303;Laerm;44109;52.398;7.024;2023-01-10T04:44:29;45.64;34.35;57.49;;
58303;Laerm;44109;52.398;7.024;2023-01-10T04:46:57;45.94;33.97;57.59;;
58303;Laerm;44109;52.398;7.024;2023-01-10T04:49:25;45.90;34.35;57.28;;
58303;Laerm;44109;52.398;7.024;2023-01-10T04:51:52;46.51;34.79;57.48;;
58303;Laerm;44109;52.398;7.024;2023-01-10T04:54:21;46.43;34.76;57.70;;
58303;Laerm;44109;52.398;7.024;2023-01-10T04:56:48;46.16;36.64;57.46;;
58303;Laerm;44109;52.398;7.024;2023-01-10T04:59:16;45.34;33.97;57.24;;
58303;Laerm;44109;52.398;7.024;2023-01-10T05:01:45;45.45;34.03;57.23;;
58303;Laerm;44109;52.398;7.024;2023-01-10T05:04:13;45.58;34.29;59.88;;
58303;Laerm;44109;52.398;7.024;2023-01-10T05:06:40;45.55;33.68;57.26;;
58303;Laerm;44109;52.398;7.024;2023-01-10T05:09:08;49.26;34.55;79.18;;
58303;Laerm;44109;52.398;7.024;2023-01-10T05:11:36;48.33;35.91;71.10;;
58303;Laerm;44109;52.398;7.024;2023-01-10T05:14:04;45.78;34.82;57.29;;
58303;Laerm;44109;52.398;7.024;2023-01-10T05:16:31;46.50;36.49;59.76;;
58303;Laerm;44109;52.398;7.024;2023-01-10T05:19:01;46.92;37.39;59.45;;
58303;Laerm;44109;52.398;7.024;2023-01-10T05:21:28;47.76;36.95;68.32;;
58303;Laerm;44109;52.398;7.024;2023-01-10T05:23:56;47.86;38.45;70.23;;
58303;Laerm;44109;52.398;7.024;2023-01-10T05:26:23;54.63;40.19;79.73;;
58303;Laerm;44109;52.398;7.024;2023-01-10T05:28:52;57.31;39.05;84.39;;
58303;Laerm;44109;52.398;7.024;2023-01-10T05:31:20;46.71;35.68;58.20;;
58303;Laerm;44109;52.398;7.024;2023-01-10T05:33:50;46.47;35.74;57.49;;
58303;Laerm;44109;52.398;7.024;2023-01-10T05:36:19;46.37;37.39;57.49;;
58303;Laerm;44109;52.398;7.024;2023-01-10T05:38:47;46.10;35.59;57.39;;
58303;Laerm;44109;52.398;7.024;2023-01-10T05:41:14;46.52;37.24;57.57;;
58303;Laerm;44109;52.398;7.024;2023-01-10T05:43:42;46.05;37.21;57.41;;
58303;Laerm;44109;52.398;7.024;2023-01-10T05:46:10;47.68;39.03;57.63;;
58303;Laerm;44109;52.398;7.024;2023-01-10T05:48:38;46.97;37.00;56.78;;
58303;Laerm;44109;52.398;7.024;2023-01-10T05:51:06;46.32;37.12;57.28;;
58303;Laerm;44109;52.398;7.024;2023-01-10T05:53:35;47.09;37.93;57.46;;
58303;Laerm;44109;52.398;7.024;2023-01-10T05:56:03;46.53;35.45;57.53;;
58303;Laerm;44109;52.398;7.024;2023-01-10T05:58:32;46.64;37.98;57.11;;
58303;Laerm;44109;52.398;7.024;2023-01-10T06:01:00;47.46;37.90;57.74;;
58303;Laerm;44109;52.398;7.024;2023-01-10T06:03:28;47.07;36.90;57.63;;
58303;Laerm;44109;52.398;7.024;2023-01-10T06:05:56;47.49;36.38;57.66;;
58303;Laerm;44109;52.398;7.024;2023-01-10T06:08:24;46.67;37.30;56.38;;
58303;Laerm;44109;52.398;7.024;2023-01-10T06:10:53;47.41;38.83;57.30;;
58303;Laerm;44109;52.398;7.024;2023-01-10T06:13:21;47.96;40.15;57.35;;
58303;Laerm;44109;52.398;7.024;2023-01-10T06:15:49;46.91;37.25;57.98;;
58303;Laerm;44109;52.398;7.024;2023-01-10T06:18:17;48.24;39.80;57.48;;
58303;Laerm;44109;52.398;7.024;2023-01-10T06:20:45;47.28;36.76;57.29;;
58303;Laerm;44109;52.398;7.024;2023-01-10T06:23:12;47.74;38.60;57.65;;
58303;Laerm;44109;52.398;7.024;2023-01-10T06:25:40;47.91;40.37;57.39;;
58303;Laerm;44109;52.398;7.024;2023-01-10T06:28:12;47.43;38.27;57.28;;
58303;Laerm;44109;52.398;7.024;2023-01-10T06:30:41;47.09;36.48;69.52;;
58303;Laerm;44109;52.398;7.024;2023-01-10T06:33:10;50.96;37.26;83.07;;
58303;Laerm;44109;52.398;7.024;2023-01-10T06:35:38;47.13;38.47;62.21;;
58303;Laerm;44109;52.398;7.024;2023-01-10T06:38:06;47.03;39.02;57.43;;
58303;Laerm;44109;52.398;7.024;2023-01-10T06:40:34;48.01;36.47;60.18;;
58303;Laerm;44109;52.398;7.024;2023-01-10T06:43:02;46.97;36.06;57.86;;
58303;Laerm;44109;52.398;7.024;2023-01-10T06:45:31;48.07;36.13;63.48;;
58303;Laerm;44109;52.398;7.024;2023-01-10T06:47:58;47.79;37.87;59.21;;
58303;Laerm;44109;52.398;7.024;2023-01-10T06:50:26;48.60;39.01;57.73;;
58303;Laerm;44109;52.398;7.024;2023-01-10T06:52:55;48.26;39.57;57.62;;
58303;Laerm;44109;52.398;7.024;2023-01-10T06:55:24;48.19;36.98;62.47;;
58303;Laerm;44109;52.398;7.024;2023-01-10T06:57:55;48.72;39.63;60.54;;
58303;Laerm;44109;52.398;7.024;2023-01-10T07:00:24;55.54;39.47;80.95;;
58303;Laerm;44109;52.398;7.024;2023-01-10T07:02:57;49.73;39.43;66.55;;
58303;Laerm;44109;52.398;7.024;2023-01-10T07:05:24;48.71;36.77;64.82;;
58303;Laerm;44109;52.398;7.024;2023-01-10T07:07:52;47.10;36.52;57.13;;
58303;Laerm;44109;52.398;7.024;2023-01-10T07:10:20;47.61;39.89;57.39;;
58303;Laerm;44109;52.398;7.024;2023-01-10T07:12:47;47.42;38.61;57.37;;
58303;Laerm;44109;52.398;7.024;2023-01-10T07:15:15;48.56;39.36;57.88;;
58303;Laerm;44109;52.398;7.024;2023-01-10T07:17:43;47.88;37.39;59.13;;
58303;Laerm;44109;52.398;7.024;2023-01-10T07:20:12;49.57;39.32;67.81;;
58303;Laerm;44109;52.398;7.024;2023-01-10T07:22:40;48.40;39.61;60.44;;
58303;Laerm;44109;52.398;7.024;2023-01-10T07:25:08;51.27;40.13;61.99;;
58303;Laerm;44109;52.398;7.024;2023-01-10T07:27:36;48.75;39.15;62.32;;
58303;Laerm;44109;52.398;7.024;2023-01-10T07:30:07;49.89;39.28;70.76;;
58303;Laerm;44109;52.398;7.024;2023-01-10T07:32:37;47.82;38.17;64.01;;
58303;Laerm;44109;52.398;7.024;2023-01-10T07:35:06;51.42;40.62;60.36;;
58303;Laerm;44109;52.398;7.024;2023-01-10T07:37:35;47.48;39.75;57.66;;
58303;Laerm;44109;52.398;7.024;2023-01-10T07:40:03;50.39;39.56;59.21;;
58303;Laerm;44109;52.398;7.024;2023-01-10T07:42:31;48.58;41.06;58.47;;
58303;Laerm;44109;52.398;7.024;2023-01-10T07:44:59;49.14;38.10;60.31;;
58303;Laerm;44109;52.398;7.024;2023-01-10T07:47:26;47.42;37.00;57.72;;
58303;Laerm;44109;52.398;7.024;2023-01-10T07:49:54;48.11;38.93;59.86;;
58303;Laerm;44109;52.398;7.024;2023-01-10T07:52:22;48.22;37.44;62.05;;
58303;Laerm;44109;52.398;7.024;2023-01-10T07:54:50;48.12;38.44;64.05;;
58303;Laerm;44109;52.398;7.024;2023-01-10T07:57:18;48.43;40.96;58.02;;
58303;Laerm;44109;52.398;7.024;2023-01-10T07:59:46;50.10;40.35;70.85;;
58303;Laerm;44109;52.398;7.024;2023-01-10T08:02:14;50.62;42.33;65.61;;
58303;Laerm;44109;52.398;7.024;2023-01-10T08:04:41;48.43;40.02;68.95;;
58303;Laerm;44109;52.398;7.024;2023-01-10T08:07:09;52.43;40.82;71.91;;
58303;Laerm;44109;52.398;7.024;2023-01-10T08:09:36;48.37;39.90;61.32;;
58303;Laerm;44109;52.398;7.024;2023-01-10T08:12:05;48.02;38.85;62.66;;
58303;Laerm;44109;52.398;7.024;2023-01-10T08:14:33;48.84;38.52;61.67;;
58303;Laerm;44109;52.398;7.024;2023-01-10T08:17:01;50.02;40.48;64.51;;
58303;Laerm;44109;52.398;7.024;2023-01-10T08:19:28;48.93;40.58;59.27;;
58303;Laerm;44109;52.398;7.024;2023-01-10T08:21:56;48.32;38.05;67.57;;
58303;Laerm;44109;52.398;7.024;2023-01-10T08:24:23;49.93;40.14;61.85;;
58303;Laerm;44109;52.398;7.024;2023-01-10T08:26:51;50.74;40.13;67.13;;
58303;Laerm;44109;52.398;7.024;2023-01-10T08:29:20;50.04;38.51;70.75;;
58303;Laerm;44109;52.398;7.024;2023-01-10T08:31:48;48.42;39.78;67.62;;
58303;Laerm;44109;52.398;7.024;2023-01-10T08:34:15;48.24;38.69;64.01;;
58303;Laerm;44109;52.398;7.024;2023-01-10T08:36:43;48.42;38.91;62.32;;
58303;Laerm;44109;52.398;7.024;2023-01-10T08:39:11;48.16;38.26;59.24;;
58303;Laerm;44109;52.398;7.024;2023-01-10T08:41:39;47.75;39.21;58.38;;
58303;Laerm;44109;52.398;7.024;2023-01-10T08:44:07;48.69;40.63;57.86;;
58303;Laerm;44109;52.398;7.024;2023-01-10T08:46:38;48.77;40.80;58.04;;
58303;Laerm;44109;52.398;7.024;2023-01-10T08:49:06;55.87;39.81;77.23;;
58303;Laerm;44109;52.398;7.024;2023-01-10T08:51:34;48.65;38.80;66.15;;
58303;Laerm;44109;52.398;7.024;2023-01-10T08:54:02;49.27;41.23;63.86;;
58303;Laerm;44109;52.398;7.024;2023-01-10T08:56:29;49.82;40.88;71.89;;
58303;Laerm;44109;52.398;7.024;2023-01-10T08:58:57;48.37;40.16;58.43;;
58303;Laerm;44109;52.398;7.024;2023-01-10T09:01:24;49.79;39.65;74.74;;
58303;Laerm;44109;52.398;7.024;2023-01-10T09:03:54;53.89;40.76;71.75;;
58303;Laerm;44109;52.398;7.024;2023-01-10T09:06:21;52.82;37.70;71.15;;
58303;Laerm;44109;52.398;7.024;2023-01-10T09:08:49;47.58;38.65;60.44;;
58303;Laerm;44109;52.398;7.024;2023-01-10T09:11:17;48.95;39.40;70.04;;
58303;Laerm;44109;52.398;7.024;2023-01-10T09:13:48;49.90;38.22;67.62;;
58303;Laerm;44109;52.398;7.024;2023-01-10T09:16:16;51.86;41.10;70.79;;
58303;Laerm;44109;52.398;7.024;2023-01-10T09:18:45;49.11;40.35;66.67;;
58303;Laerm;44109;52.398;7.024;2023-01-10T09:21:14;50.54;39.56;74.43;;
58303;Laerm;44109;52.398;7.024;2023-01-10T09:23:41;50.03;41.30;71.03;;
58303;Laerm;44109;52.398;7.024;2023-01-10T09:26:09;49.11;40.33;64.94;;
58303;Laerm;44109;52.398;7.024;2023-01-10T09:28:37;48.29;40.91;58.02;;
58303;Laerm;44109;52.398;7.024;2023-01-10T09:31:05;48.97;40.88;69.95;;
58303;Laerm;44109;52.398;7.024;2023-01-10T09:33:34;48.32;39.16;57.73;;
58303;Laerm;44109;52.398;7.024;2023-01-10T09:36:03;49.17;39.46;63.47;;
58303;Laerm;44109;52.398;7.024;2023-01-10T09:38:32;47.73;39.07;60.34;;
58303;Laerm;44109;52.398;7.024;2023-01-10T09:41:29;48.02;40.11;57.94;;
58303;Laerm;44109;52.398;7.024;2023-01-10T09:44:04;49.65;43.06;63.01;;
58303;Laerm;44109;52.398;7.024;2023-01-10T09:46:45;49.87;40.77;73.40;;
58303;Laerm;44109;52.398;7.024;2023-01-10T09:49:30;47.87;40.52;58.33;;
58303;Laerm;44109;52.398;7.024;2023-01-10T09:52:01;50.73;40.10;70.37;;
58303;Laerm;44109;52.398;7.024;2023-01-10T09:54:40;50.52;41.02;70.99;;
58303;Laerm;44109;52.398;7.024;2023-01-10T09:57:16;49.32;39.38;67.23;;
58303;Laerm;44109;52.398;7.024;2023-01-10T09:59:47;49.71;43.09;63.19;;
58303;Laerm;44109;52.398;7.024;2023-01-10T10:02:26;48.99;40.15;73.08;;
58303;Laerm;44109;52.398;7.024;2023-01-10T10:05:10;49.70;39.34;63.01;;
58303;Laerm;44109;52.398;7.024;2023-01-10T10:07:39;48.41;39.85;58.37;;
58303;Laerm;44109;52.398;7.024;2023-01-10T10:10:22;49.29;39.89;66.39;;
58303;Laerm;44109;52.398;7.024;2023-01-10T10:13:06;52.07;41.79;67.02;;
58303;Laerm;44109;52.398;7.024;2023-01-10T10:15:45;51.97;40.11;66.48;;
58303;Laerm;44109;52.398;7.024;2023-01-10T10:18:28;51.38;40.23;79.83;;
58303;Laerm;44109;52.398;7.024;2023-01-10T10:21:04;50.19;38.37;74.76;;
58303;Laerm;44109;52.398;7.024;2023-01-10T10:23:59;48.95;40.07;69.51;;
58303;Laerm;44109;52.398;7.024;2023-01-10T10:26:35;47.85;38.97;63.14;;
58303;Laerm;44109;52.398;7.024;2023-01-10T10:30:02;48.95;39.98;70.58;;
58303;Laerm;44109;52.398;7.024;2023-01-10T10:33:05;48.63;39.64;58.81;;
58303;Laerm;44109;52.398;7.024;2023-01-10T10:35:39;48.63;39.84;57.88;;
58303;Laerm;44109;52.398;7.024;2023-01-10T10:38:16;49.06;37.65;60.51;;
58303;Laerm;44109;52.398;7.024;2023-01-10T10:40:47;51.18;38.94;69.91;;
58303;Laerm;44109;52.398;7.024;2023-01-10T10:43:20;47.89;39.03;57.40;;
58303;Laerm;44109;52.398;7.024;2023-01-10T10:45:56;49.28;40.82;63.84;;
58303;Laerm;44109;52.398;7.024;2023-01-10T10:48:28;50.49;42.26;61.15;;
58303;Laerm;44109;52.398;7.024;2023-01-10T10:51:07;49.31;40.13;62.14;;
58303;Laerm;44109;52.398;7.024;2023-01-10T10:53:38;52.46;40.34;71.11;;
58303;Laerm;44109;52.398;7.024;2023-01-10T10:56:13;48.54;40.16;61.82;;
58303;Laerm;44109;52.398;7.024;2023-01-10T10:58:47;48.97;38.71;67.51;;
58303;Laerm;44109;52.398;7.024;2023-01-10T11:01:18;49.81;38.58;72.09;;
58303;Laerm;44109;52.398;7.024;2023-01-10T11:03:50;51.03;45.21;61.69;;
58303;Laerm;44109;52.398;7.024;2023-01-10T11:06:22;51.26;44.03;68.07;;
58303;Laerm;44109;52.398;7.024;2023-01-10T11:08:55;50.00;44.03;59.71;;
58303;Laerm;44109;52.398;7.024;2023-01-10T11:11:28;48.56;38.58;57.50;;
58303;Laerm;44109;52.398;7.024;2023-01-10T11:14:00;48.23;40.13;58.50;;
58303;Laerm;44109;52.398;7.024;2023-01-10T11:16:31;48.82;39.21;57.44;;
58303;Laerm;44109;52.398;7.024;2023-01-10T11:19:19;48.08;38.88;62.69;;
58303;Laerm;44109;52.398;7.024;2023-01-10T11:21:54;48.71;38.78;68.03;;
58303;Laerm;44109;52.398;7.024;2023-01-10T11:24:28;49.63;38.82;65.11;;
58303;Laerm;44109;52.398;7.024;2023-01-10T11:27:00;53.38;38.53;70.64;;
58303;Laerm;44109;52.398;7.024;2023-01-10T11:29:37;51.21;38.00;74.77;;
58303;Laerm;44109;52.398;7.024;2023-01-10T11:32:13;49.96;37.17;70.23;;
58303;Laerm;44109;52.398;7.024;2023-01-10T11:34:49;49.02;36.30;61.43;;
58303;Laerm;44109;52.398;7.024;2023-01-10T11:37:23;49.55;38.58;67.38;;
58303;Laerm;44109;52.398;7.024;2023-01-10T11:40:19;48.55;38.97;65.72;;
58303;Laerm;44109;52.398;7.024;2023-01-10T11:42:50;54.21;40.60;74.75;;
58303;Laerm;44109;52.398;7.024;2023-01-10T11:45:30;52.45;41.21;72.22;;
58303;Laerm;44109;52.398;7.024;2023-01-10T11:48:08;51.69;40.38;71.36;;
58303;Laerm;44109;52.398;7.024;2023-01-10T11:50:41;51.77;40.11;72.99;;
58303;Laerm;44109;52.398;7.024;2023-01-10T11:53:35;52.15;40.31;71.41;;
58303;Laerm;44109;52.398;7.024;2023-01-10T11:56:06;53.24;41.90;72.34;;
58303;Laerm;44109;52.398;7.024;2023-01-10T11:58:37;54.06;41.50;72.35;;
58303;Laerm;44109;52.398;7.024;2023-01-10T12:01:27;48.60;38.85;61.40;;
58303;Laerm;44109;52.398;7.024;2023-01-10T12:03:56;49.05;40.72;57.91;;
58303;Laerm;44109;52.398;7.024;2023-01-10T12:06:26;48.80;39.42;57.55;;
58303;Laerm;44109;52.398;7.024;2023-01-10T12:08:54;51.87;36.35;70.16;;
58303;Laerm;44109;52.398;7.024;2023-01-10T12:11:28;51.89;40.85;70.18;;
58303;Laerm;44109;52.398;7.024;2023-01-10T12:13:58;49.72;40.92;64.76;;
58303;Laerm;44109;52.398;7.024;2023-01-10T12:16:29;49.15;40.80;58.40;;
58303;Laerm;44109;52.398;7.024;2023-01-10T12:19:00;51.42;42.53;73.03;;
58303;Laerm;44109;52.398;7.024;2023-01-10T12:21:36;52.95;41.58;73.16;;
58303;Laerm;44109;52.398;7.024;2023-01-10T12:24:11;50.74;41.57;62.81;;
58303;Laerm;44109;52.398;7.024;2023-01-10T12:26:43;51.62;41.31;71.35;;
58303;Laerm;44109;52.398;7.024;2023-01-10T12:29:22;48.70;38.97;58.14;;
58303;Laerm;44109;52.398;7.024;2023-01-10T12:31:56;48.66;37.82;58.20;;
58303;Laerm;44109;52.398;7.024;2023-01-10T12:34:38;49.53;40.42;59.78;;
58303;Laerm;44109;52.398;7.024;2023-01-10T12:37:15;48.86;38.51;57.76;;
58303;Laerm;44109;52.398;7.024;2023-01-10T12:39:50;50.54;41.56;64.38;;
58303;Laerm;44109;52.398;7.024;2023-01-10T12:42:32;49.43;40.61;61.24;;
58303;Laerm;44109;52.398;7.024;2023-01-10T12:45:28;49.84;40.95;58.42;;
58303;Laerm;44109;52.398;7.024;2023-01-10T12:48:06;49.62;41.15;58.06;;
58303;Laerm;44109;52.398;7.024;2023-01-10T12:50:43;49.72;39.59;58.65;;
58303;Laerm;44109;52.398;7.024;2023-01-10T12:53:27;48.94;39.38;58.30;;
58303;Laerm;44109;52.398;7.024;2023-01-10T12:55:57;45.41;39.22;58.41;;
58303;Laerm;44109;52.398;7.024;2023-01-10T12:58:34;48.47;38.93;57.99;;
58303;Laerm;44109;52.398;7.024;2023-01-10T13:01:04;50.55;41.62;58.37;;
58303;Laerm;44109;52.398;7.024;2023-01-10T13:03:35;49.38;40.07;61.94;;
58303;Laerm;44109;52.398;7.024;2023-01-10T13:06:03;50.01;40.33;59.09;;
58303;Laerm;44109;52.398;7.024;2023-01-10T13:08:33;50.10;41.93;58.15;;
58303;Laerm;44109;52.398;7.024;2023-01-10T13:11:03;48.80;40.51;57.91;;
58303;Laerm;44109;52.398;7.024;2023-01-10T13:13:35;49.75;38.49;58.19;;
58303;Laerm;44109;52.398;7.024;2023-01-10T13:16:26;50.27;41.41;58.30;;
58303;Laerm;44109;52.398;7.024;2023-01-10T13:19:04;50.22;40.48;63.89;;
58303;Laerm;44109;52.398;7.024;2023-01-10T13:21:33;48.93;39.78;59.50;;
58303;Laerm;44109;52.398;7.024;2023-01-10T13:24:03;51.00;41.61;65.05;;
58303;Laerm;44109;52.398;7.024;2023-01-10T13:26:52;51.75;44.83;58.59;;
58303;Laerm;44109;52.398;7.024;2023-01-10T13:29:22;50.17;41.73;58.21;;
58303;Laerm;44109;52.398;7.024;2023-01-10T13:31:52;49.57;39.37;58.21;;
58303;Laerm;44109;52.398;7.024;2023-01-10T13:34:32;49.07;41.27;58.06;;
58303;Laerm;44109;52.398;7.024;2023-01-10T13:37:03;49.98;41.71;58.45;;
58303;Laerm;44109;52.398;7.024;2023-01-10T13:39:39;51.22;44.59;58.65;;
58303;Laerm;44109;52.398;7.024;2023-01-10T13:42:30;49.46;41.24;64.14;;
58303;Laerm;44109;52.398;7.024;2023-01-10T13:45:22;50.16;40.11;58.64;;
58303;Laerm;44109;52.398;7.024;2023-01-10T13:48:25;50.34;43.02;69.40;;
58303;Laerm;44109;52.398;7.024;2023-01-10T13:51:12;49.65;39.51;60.63;;
58303;Laerm;44109;52.398;7.024;2023-01-10T13:53:57;49.31;40.20;58.22;;
58303;Laerm;44109;52.398;7.024;2023-01-10T13:56:37;52.69;44.82;74.26;;
58303;Laerm;44109;52.398;7.024;2023-01-10T14:02:44;49.82;41.88;68.75;;
58303;Laerm;44109;52.398;7.024;2023-01-10T14:05:16;51.56;41.97;65.69;;
58303;Laerm;44109;52.398;7.024;2023-01-10T14:07:48;52.59;44.64;65.13;;
58303;Laerm;44109;52.398;7.024;2023-01-10T14:10:22;51.37;42.90;69.77;;
58303;Laerm;44109;52.398;7.024;2023-01-10T14:12:55;53.14;42.74;67.95;;
58303;Laerm;44109;52.398;7.024;2023-01-10T14:15:27;51.57;43.31;65.39;;
58303;Laerm;44109;52.398;7.024;2023-01-10T14:18:00;50.48;43.02;62.81;;
58303;Laerm;44109;52.398;7.024;2023-01-10T14:20:31;51.34;43.29;60.35;;
58303;Laerm;44109;52.398;7.024;2023-01-10T14:23:05;50.21;42.11;65.96;;
58303;Laerm;44109;52.398;7.024;2023-01-10T14:25:36;50.18;42.53;61.51;;
58303;Laerm;44109;52.398;7.024;2023-01-10T14:28:16;50.96;40.41;64.37;;
58303;Laerm;44109;52.398;7.024;2023-01-10T14:31:01;51.16;40.52;74.88;;